sensor_id;sensor_type;location;lat;lon;timestamp;temperature;humidity
4425;DHT22;2225;53.568;13.266;2022-12-07T00:01:32;7.20;95.80
4425;DHT22;2225;53.568;13.266;2022-12-07T00:04:02;7.20;95.80
4425;DHT22;2225;53.568;13.266;2022-12-07T00:06:35;7.20;95.80
4425;DHT22;2225;53.568;13.266;2022-12-07T00:09:04;7.20;95.70
4425;DHT22;2225;53.568;13.266;2022-12-07T00:11:32;7.20;95.60
4425;DHT22;2225;53.568;13.266;2022-12-07T00:14:05;7.20;95.60
4425;DHT22;2225;53.568;13.266;2022-12-07T00:16:34;7.20;95.50
4425;DHT22;2225;53.568;13.266;2022-12-07T00:19:03;7.10;95.40
4425;DHT22;2225;53.568;13.266;2022-12-07T00:21:33;7.10;95.50
4425;DHT22;2225;53.568;13.266;2022-12-07T00:24:01;7.10;95.40
4425;DHT22;2225;53.568;13.266;2022-12-07T00:26:32;7.10;95.30
4425;DHT22;2225;53.568;13.266;2022-12-07T00:29:06;7.10;95.30
4425;DHT22;2225;53.568;13.266;2022-12-07T00:31:36;7.00;95.20
4425;DHT22;2225;53.568;13.266;2022-12-07T00:34:07;7.00;94.80
4425;DHT22;2225;53.568;13.266;2022-12-07T00:36:38;6.90;94.60
4425;DHT22;2225;53.568;13.266;2022-12-07T00:39:05;6.90;94.50
4425;DHT22;2225;53.568;13.266;2022-12-07T00:41:32;6.80;94.40
4425;DHT22;2225;53.568;13.266;2022-12-07T00:43:59;6.80;94.40
4425;DHT22;2225;53.568;13.266;2022-12-07T00:46:26;6.80;94.50
4425;DHT22;2225;53.568;13.266;2022-12-07T00:48:53;6.70;94.60
4425;DHT22;2225;53.568;13.266;2022-12-07T00:51:23;6.70;94.70
4425;DHT22;2225;53.568;13.266;2022-12-07T00:53:51;6.70;94.80
4425;DHT22;2225;53.568;13.266;2022-12-07T00:56:26;6.70;94.80
4425;DHT22;2225;53.568;13.266;2022-12-07T00:58:56;6.70;94.80
4425;DHT22;2225;53.568;13.266;2022-12-07T01:01:27;6.70;94.70
4425;DHT22;2225;53.568;13.266;2022-12-07T01:03:56;6.70;94.60
4425;DHT22;2225;53.568;13.266;2022-12-07T01:06:24;6.70;94.50
4425;DHT22;2225;53.568;13.266;2022-12-07T01:08:52;6.70;94.60
4425;DHT22;2225;53.568;13.266;2022-12-07T01:11:21;6.70;94.60
4425;DHT22;2225;53.568;13.266;2022-12-07T01:13:51;6.70;94.60
4425;DHT22;2225;53.568;13.266;2022-12-07T01:16:20;6.60;94.50
4425;DHT22;2225;53.568;13.266;2022-12-07T01:18:50;6.60;94.50
4425;DHT22;2225;53.568;13.266;2022-12-07T01:21:23;6.50;94.40
4425;DHT22;2225;53.568;13.266;2022-12-07T01:23:57;6.50;94.60
4425;DHT22;2225;53.568;13.266;2022-12-07T01:26:24;6.50;94.60
4425;DHT22;2225;53.568;13.266;2022-12-07T01:28:52;6.50;94.70
4425;DHT22;2225;53.568;13.266;2022-12-07T01:31:23;6.50;94.80
4425;DHT22;2225;53.568;13.266;2022-12-07T01:33:55;6.40;94.80
4425;DHT22;2225;53.568;13.266;2022-12-07T01:36:31;6.50;94.90
4425;DHT22;2225;53.568;13.266;2022-12-07T01:39:02;6.40;94.90
4425;DHT22;2225;53.568;13.266;2022-12-07T01:41:34;6.40;94.90
4425;DHT22;2225;53.568;13.266;2022-12-07T01:44:19;6.40;94.90
4425;DHT22;2225;53.568;13.266;2022-12-07T01:47:00;6.50;94.80
4425;DHT22;2225;53.568;13.266;2022-12-07T01:49:39;6.40;94.70
4425;DHT22;2225;53.568;13.266;2022-12-07T01:52:24;6.40;94.80
4425;DHT22;2225;53.568;13.266;2022-12-07T01:54:58;6.40;94.80
4425;DHT22;2225;53.568;13.266;2022-12-07T01:57:26;6.40;94.90
4425;DHT22;2225;53.568;13.266;2022-12-07T01:59:54;6.40;94.80
4425;DHT22;2225;53.568;13.266;2022-12-07T02:02:34;6.40;94.90
4425;DHT22;2225;53.568;13.266;2022-12-07T02:05:05;6.40;94.80
4425;DHT22;2225;53.568;13.266;2022-12-07T02:07:34;6.40;94.70
4425;DHT22;2225;53.568;13.266;2022-12-07T02:10:32;6.40;94.80
4425;DHT22;2225;53.568;13.266;2022-12-07T02:13:33;6.50;94.60
4425;DHT22;2225;53.568;13.266;2022-12-07T02:18:55;6.50;94.70
4425;DHT22;2225;53.568;13.266;2022-12-07T02:21:52;6.50;94.80
4425;DHT22;2225;53.568;13.266;2022-12-07T02:27:45;6.50;94.60
4425;DHT22;2225;53.568;13.266;2022-12-07T02:30:21;6.50;94.60
4425;DHT22;2225;53.568;13.266;2022-12-07T02:33:09;6.50;94.60
4425;DHT22;2225;53.568;13.266;2022-12-07T02:36:15;6.50;94.60
4425;DHT22;2225;53.568;13.266;2022-12-07T02:38:39;6.50;94.70
4425;DHT22;2225;53.568;13.266;2022-12-07T02:43:45;6.50;95.10
4425;DHT22;2225;53.568;13.266;2022-12-07T02:46:17;6.50;94.80
4425;DHT22;2225;53.568;13.266;2022-12-07T02:48:47;6.50;94.90
4425;DHT22;2225;53.568;13.266;2022-12-07T02:51:17;6.50;94.90
4425;DHT22;2225;53.568;13.266;2022-12-07T02:53:44;6.50;94.90
4425;DHT22;2225;53.568;13.266;2022-12-07T02:56:37;6.50;95.00
4425;DHT22;2225;53.568;13.266;2022-12-07T03:02:35;6.50;95.10
4425;DHT22;2225;53.568;13.266;2022-12-07T03:05:31;6.50;95.10
4425;DHT22;2225;53.568;13.266;2022-12-07T03:11:13;6.50;95.20
4425;DHT22;2225;53.568;13.266;2022-12-07T03:13:58;6.50;95.20
4425;DHT22;2225;53.568;13.266;2022-12-07T03:16:33;6.50;95.10
4425;DHT22;2225;53.568;13.266;2022-12-07T03:19:13;6.50;95.10
4425;DHT22;2225;53.568;13.266;2022-12-07T03:22:05;6.50;95.10
4425;DHT22;2225;53.568;13.266;2022-12-07T03:24:59;6.50;95.10
4425;DHT22;2225;53.568;13.266;2022-12-07T03:27:41;6.60;95.20
4425;DHT22;2225;53.568;13.266;2022-12-07T03:30:20;6.50;95.20
4425;DHT22;2225;53.568;13.266;2022-12-07T03:32:59;6.50;95.60
4425;DHT22;2225;53.568;13.266;2022-12-07T03:35:47;6.50;95.30
4425;DHT22;2225;53.568;13.266;2022-12-07T03:38:25;6.50;95.30
4425;DHT22;2225;53.568;13.266;2022-12-07T03:41:09;6.50;95.20
4425;DHT22;2225;53.568;13.266;2022-12-07T03:43:41;6.40;95.20
4425;DHT22;2225;53.568;13.266;2022-12-07T03:49:37;6.40;95.40
4425;DHT22;2225;53.568;13.266;2022-12-07T03:52:23;6.40;95.40
4425;DHT22;2225;53.568;13.266;2022-12-07T03:57:32;6.40;95.60
4425;DHT22;2225;53.568;13.266;2022-12-07T04:00:00;6.40;95.60
4425;DHT22;2225;53.568;13.266;2022-12-07T04:02:37;6.50;95.60
4425;DHT22;2225;53.568;13.266;2022-12-07T04:05:06;6.50;95.60
4425;DHT22;2225;53.568;13.266;2022-12-07T04:07:33;6.50;95.60
4425;DHT22;2225;53.568;13.266;2022-12-07T04:10:00;6.50;95.60
4425;DHT22;2225;53.568;13.266;2022-12-07T04:12:28;6.50;95.60
4425;DHT22;2225;53.568;13.266;2022-12-07T04:14:55;6.60;95.60
4425;DHT22;2225;53.568;13.266;2022-12-07T04:17:22;6.60;95.60
4425;DHT22;2225;53.568;13.266;2022-12-07T04:19:49;6.60;95.70
4425;DHT22;2225;53.568;13.266;2022-12-07T04:22:16;6.60;95.60
4425;DHT22;2225;53.568;13.266;2022-12-07T04:24:43;6.60;95.60
4425;DHT22;2225;53.568;13.266;2022-12-07T04:27:10;6.60;95.60
4425;DHT22;2225;53.568;13.266;2022-12-07T04:29:37;6.60;95.40
4425;DHT22;2225;53.568;13.266;2022-12-07T04:32:04;6.60;95.40
4425;DHT22;2225;53.568;13.266;2022-12-07T04:34:31;6.60;95.30
4425;DHT22;2225;53.568;13.266;2022-12-07T04:36:58;6.60;95.30
4425;DHT22;2225;53.568;13.266;2022-12-07T04:39:30;6.60;95.30
4425;DHT22;2225;53.568;13.266;2022-12-07T04:41:58;6.60;95.30
4425;DHT22;2225;53.568;13.266;2022-12-07T04:44:27;6.50;95.40
4425;DHT22;2225;53.568;13.266;2022-12-07T04:46:55;6.50;95.50
4425;DHT22;2225;53.568;13.266;2022-12-07T04:49:24;6.50;95.50
4425;DHT22;2225;53.568;13.266;2022-12-07T04:51:51;6.50;95.50
4425;DHT22;2225;53.568;13.266;2022-12-07T04:54:18;6.50;95.50
4425;DHT22;2225;53.568;13.266;2022-12-07T04:56:46;6.50;95.60
4425;DHT22;2225;53.568;13.266;2022-12-07T04:59:14;6.50;95.70
4425;DHT22;2225;53.568;13.266;2022-12-07T05:01:42;6.50;95.70
4425;DHT22;2225;53.568;13.266;2022-12-07T05:04:10;6.50;95.70
4425;DHT22;2225;53.568;13.266;2022-12-07T05:06:37;6.60;95.70
4425;DHT22;2225;53.568;13.266;2022-12-07T05:09:04;6.60;95.70
4425;DHT22;2225;53.568;13.266;2022-12-07T05:11:31;6.60;95.70
4425;DHT22;2225;53.568;13.266;2022-12-07T05:14:24;6.60;95.70
4425;DHT22;2225;53.568;13.266;2022-12-07T05:16:51;6.60;95.70
4425;DHT22;2225;53.568;13.266;2022-12-07T05:19:20;6.60;95.60
4425;DHT22;2225;53.568;13.266;2022-12-07T05:21:47;6.60;95.70
4425;DHT22;2225;53.568;13.266;2022-12-07T05:24:15;6.60;95.70
4425;DHT22;2225;53.568;13.266;2022-12-07T05:26:43;6.60;95.80
4425;DHT22;2225;53.568;13.266;2022-12-07T05:29:12;6.60;95.80
4425;DHT22;2225;53.568;13.266;2022-12-07T05:31:40;6.60;95.80
4425;DHT22;2225;53.568;13.266;2022-12-07T05:34:08;6.60;95.70
4425;DHT22;2225;53.568;13.266;2022-12-07T05:36:35;6.60;95.80
4425;DHT22;2225;53.568;13.266;2022-12-07T05:39:02;6.60;95.80
4425;DHT22;2225;53.568;13.266;2022-12-07T05:41:29;6.60;95.80
4425;DHT22;2225;53.568;13.266;2022-12-07T05:44:15;6.60;95.80
4425;DHT22;2225;53.568;13.266;2022-12-07T05:46:42;6.60;95.80
4425;DHT22;2225;53.568;13.266;2022-12-07T05:49:09;6.60;95.80
4425;DHT22;2225;53.568;13.266;2022-12-07T05:51:36;6.50;95.80
4425;DHT22;2225;53.568;13.266;2022-12-07T05:54:03;6.50;95.80
4425;DHT22;2225;53.568;13.266;2022-12-07T05:56:30;6.50;95.80
4425;DHT22;2225;53.568;13.266;2022-12-07T05:58:56;6.50;95.90
4425;DHT22;2225;53.568;13.266;2022-12-07T06:01:41;6.50;96.00
4425;DHT22;2225;53.568;13.266;2022-12-07T06:04:08;6.50;96.00
4425;DHT22;2225;53.568;13.266;2022-12-07T06:06:35;6.50;96.00
4425;DHT22;2225;53.568;13.266;2022-12-07T06:09:04;6.50;96.00
4425;DHT22;2225;53.568;13.266;2022-12-07T06:11:31;6.50;96.10
4425;DHT22;2225;53.568;13.266;2022-12-07T06:14:16;6.50;96.10
4425;DHT22;2225;53.568;13.266;2022-12-07T06:16:43;6.50;96.10
4425;DHT22;2225;53.568;13.266;2022-12-07T06:19:10;6.50;96.10
4425;DHT22;2225;53.568;13.266;2022-12-07T06:21:37;6.50;96.10
4425;DHT22;2225;53.568;13.266;2022-12-07T06:24:04;6.60;96.10
4425;DHT22;2225;53.568;13.266;2022-12-07T06:26:31;6.60;96.10
4425;DHT22;2225;53.568;13.266;2022-12-07T06:28:58;6.60;96.10
4425;DHT22;2225;53.568;13.266;2022-12-07T06:31:25;6.60;96.20
4425;DHT22;2225;53.568;13.266;2022-12-07T06:34:00;6.60;96.10
4425;DHT22;2225;53.568;13.266;2022-12-07T06:36:28;6.60;96.10
4425;DHT22;2225;53.568;13.266;2022-12-07T06:38:55;6.60;96.10
4425;DHT22;2225;53.568;13.266;2022-12-07T06:41:23;6.60;96.10
4425;DHT22;2225;53.568;13.266;2022-12-07T06:43:50;6.70;96.10
4425;DHT22;2225;53.568;13.266;2022-12-07T06:46:22;6.70;96.10
4425;DHT22;2225;53.568;13.266;2022-12-07T06:48:49;6.70;96.20
4425;DHT22;2225;53.568;13.266;2022-12-07T06:51:16;6.70;96.10
4425;DHT22;2225;53.568;13.266;2022-12-07T06:53:43;6.70;96.10
4425;DHT22;2225;53.568;13.266;2022-12-07T06:56:10;6.70;96.10
4425;DHT22;2225;53.568;13.266;2022-12-07T06:58:38;6.70;96.10
4425;DHT22;2225;53.568;13.266;2022-12-07T07:01:13;6.70;96.00
4425;DHT22;2225;53.568;13.266;2022-12-07T07:03:42;6.70;96.00
4425;DHT22;2225;53.568;13.266;2022-12-07T07:06:09;6.70;96.00
4425;DHT22;2225;53.568;13.266;2022-12-07T07:08:37;6.70;96.00
4425;DHT22;2225;53.568;13.266;2022-12-07T07:11:06;6.60;95.90
4425;DHT22;2225;53.568;13.266;2022-12-07T07:13:33;6.60;96.00
4425;DHT22;2225;53.568;13.266;2022-12-07T07:16:01;6.60;96.00
4425;DHT22;2225;53.568;13.266;2022-12-07T07:18:28;6.60;96.10
4425;DHT22;2225;53.568;13.266;2022-12-07T07:20:55;6.60;96.10
4425;DHT22;2225;53.568;13.266;2022-12-07T07:23:22;6.50;96.20
4425;DHT22;2225;53.568;13.266;2022-12-07T07:25:49;6.50;96.20
4425;DHT22;2225;53.568;13.266;2022-12-07T07:28:16;6.50;96.20
4425;DHT22;2225;53.568;13.266;2022-12-07T07:30:44;6.50;96.20
4425;DHT22;2225;53.568;13.266;2022-12-07T07:33:11;6.50;96.30
4425;DHT22;2225;53.568;13.266;2022-12-07T07:35:38;6.50;96.30
4425;DHT22;2225;53.568;13.266;2022-12-07T07:38:05;6.50;96.30
4425;DHT22;2225;53.568;13.266;2022-12-07T07:40:33;6.50;96.30
4425;DHT22;2225;53.568;13.266;2022-12-07T07:43:00;6.50;96.30
4425;DHT22;2225;53.568;13.266;2022-12-07T07:45:27;6.50;96.20
4425;DHT22;2225;53.568;13.266;2022-12-07T07:47:54;6.50;96.30
4425;DHT22;2225;53.568;13.266;2022-12-07T07:50:21;6.50;96.30
4425;DHT22;2225;53.568;13.266;2022-12-07T07:52:48;6.50;96.30
4425;DHT22;2225;53.568;13.266;2022-12-07T07:55:16;6.50;96.20
4425;DHT22;2225;53.568;13.266;2022-12-07T07:57:42;6.50;96.20
4425;DHT22;2225;53.568;13.266;2022-12-07T08:00:17;6.50;96.10
4425;DHT22;2225;53.568;13.266;2022-12-07T08:02:44;6.50;96.20
4425;DHT22;2225;53.568;13.266;2022-12-07T08:05:11;6.40;96.20
4425;DHT22;2225;53.568;13.266;2022-12-07T08:07:39;6.40;96.20
4425;DHT22;2225;53.568;13.266;2022-12-07T08:10:07;6.40;96.20
4425;DHT22;2225;53.568;13.266;2022-12-07T08:12:37;6.40;96.30
4425;DHT22;2225;53.568;13.266;2022-12-07T08:15:26;6.40;96.40
4425;DHT22;2225;53.568;13.266;2022-12-07T08:17:54;6.40;96.40
4425;DHT22;2225;53.568;13.266;2022-12-07T08:20:21;6.50;96.40
4425;DHT22;2225;53.568;13.266;2022-12-07T08:22:48;6.50;96.40
4425;DHT22;2225;53.568;13.266;2022-12-07T08:25:15;6.50;96.50
4425;DHT22;2225;53.568;13.266;2022-12-07T08:27:42;6.50;96.70
4425;DHT22;2225;53.568;13.266;2022-12-07T08:30:09;6.50;96.50
4425;DHT22;2225;53.568;13.266;2022-12-07T08:32:36;6.60;96.60
4425;DHT22;2225;53.568;13.266;2022-12-07T08:35:04;6.60;96.70
4425;DHT22;2225;53.568;13.266;2022-12-07T08:37:31;6.60;96.70
4425;DHT22;2225;53.568;13.266;2022-12-07T08:39:58;6.60;96.70
4425;DHT22;2225;53.568;13.266;2022-12-07T08:42:26;6.60;96.50
4425;DHT22;2225;53.568;13.266;2022-12-07T08:44:56;6.70;96.60
4425;DHT22;2225;53.568;13.266;2022-12-07T08:47:24;6.70;96.50
4425;DHT22;2225;53.568;13.266;2022-12-07T08:49:53;6.70;96.40
4425;DHT22;2225;53.568;13.266;2022-12-07T08:52:20;6.70;96.30
4425;DHT22;2225;53.568;13.266;2022-12-07T08:54:48;6.70;96.30
4425;DHT22;2225;53.568;13.266;2022-12-07T08:57:15;6.60;96.30
4425;DHT22;2225;53.568;13.266;2022-12-07T08:59:42;6.60;96.30
4425;DHT22;2225;53.568;13.266;2022-12-07T09:02:09;6.60;96.40
4425;DHT22;2225;53.568;13.266;2022-12-07T09:04:36;6.60;96.40
4425;DHT22;2225;53.568;13.266;2022-12-07T09:07:03;6.60;96.30
4425;DHT22;2225;53.568;13.266;2022-12-07T09:09:30;6.60;96.40
4425;DHT22;2225;53.568;13.266;2022-12-07T09:11:57;6.60;96.40
4425;DHT22;2225;53.568;13.266;2022-12-07T09:14:24;6.60;96.50
4425;DHT22;2225;53.568;13.266;2022-12-07T09:16:51;6.60;96.50
4425;DHT22;2225;53.568;13.266;2022-12-07T09:19:18;6.60;96.50
4425;DHT22;2225;53.568;13.266;2022-12-07T09:21:45;6.60;96.50
4425;DHT22;2225;53.568;13.266;2022-12-07T09:24:13;6.60;96.60
4425;DHT22;2225;53.568;13.266;2022-12-07T09:26:39;6.60;97.00
4425;DHT22;2225;53.568;13.266;2022-12-07T09:29:07;6.60;96.70
4425;DHT22;2225;53.568;13.266;2022-12-07T09:31:36;6.60;96.60
4425;DHT22;2225;53.568;13.266;2022-12-07T09:34:04;6.70;96.70
4425;DHT22;2225;53.568;13.266;2022-12-07T09:36:33;6.70;96.70
4425;DHT22;2225;53.568;13.266;2022-12-07T09:38:59;6.70;96.70
4425;DHT22;2225;53.568;13.266;2022-12-07T09:41:29;6.70;96.80
4425;DHT22;2225;53.568;13.266;2022-12-07T09:44:05;6.80;96.90
4425;DHT22;2225;53.568;13.266;2022-12-07T09:46:39;6.80;97.20
4425;DHT22;2225;53.568;13.266;2022-12-07T09:49:21;6.80;96.90
4425;DHT22;2225;53.568;13.266;2022-12-07T09:54:36;6.90;96.60
4425;DHT22;2225;53.568;13.266;2022-12-07T09:57:10;7.00;96.60
4425;DHT22;2225;53.568;13.266;2022-12-07T09:59:37;7.00;96.60
4425;DHT22;2225;53.568;13.266;2022-12-07T10:02:34;7.00;96.50
4425;DHT22;2225;53.568;13.266;2022-12-07T10:05:06;7.00;96.50
4425;DHT22;2225;53.568;13.266;2022-12-07T10:07:36;7.00;96.50
4425;DHT22;2225;53.568;13.266;2022-12-07T10:10:06;7.10;96.60
4425;DHT22;2225;53.568;13.266;2022-12-07T10:12:56;7.10;96.40
4425;DHT22;2225;53.568;13.266;2022-12-07T10:15:51;7.10;96.10
4425;DHT22;2225;53.568;13.266;2022-12-07T10:23:36;7.00;95.80
4425;DHT22;2225;53.568;13.266;2022-12-07T10:26:33;7.00;95.90
4425;DHT22;2225;53.568;13.266;2022-12-07T10:29:19;7.00;96.00
4425;DHT22;2225;53.568;13.266;2022-12-07T10:32:00;7.00;96.10
4425;DHT22;2225;53.568;13.266;2022-12-07T10:34:35;7.00;96.30
4425;DHT22;2225;53.568;13.266;2022-12-07T10:39:50;7.10;96.30
4425;DHT22;2225;53.568;13.266;2022-12-07T10:42:23;7.10;96.40
4425;DHT22;2225;53.568;13.266;2022-12-07T10:45:14;7.10;96.40
4425;DHT22;2225;53.568;13.266;2022-12-07T10:47:44;7.10;96.20
4425;DHT22;2225;53.568;13.266;2022-12-07T10:50:32;7.10;96.30
4425;DHT22;2225;53.568;13.266;2022-12-07T11:00:00;7.20;96.00
4425;DHT22;2225;53.568;13.266;2022-12-07T11:05:46;7.20;95.80
4425;DHT22;2225;53.568;13.266;2022-12-07T11:09:00;7.30;95.90
4425;DHT22;2225;53.568;13.266;2022-12-07T11:11:36;7.30;95.80
4425;DHT22;2225;53.568;13.266;2022-12-07T11:14:28;7.30;95.90
4425;DHT22;2225;53.568;13.266;2022-12-07T11:17:11;7.40;95.70
4425;DHT22;2225;53.568;13.266;2022-12-07T11:20:12;7.40;95.70
4425;DHT22;2225;53.568;13.266;2022-12-07T11:22:58;7.50;95.30
4425;DHT22;2225;53.568;13.266;2022-12-07T11:25:34;7.50;94.70
4425;DHT22;2225;53.568;13.266;2022-12-07T11:28:31;7.50;94.60
4425;DHT22;2225;53.568;13.266;2022-12-07T11:31:28;7.50;94.40
4425;DHT22;2225;53.568;13.266;2022-12-07T11:34:14;7.50;94.20
4425;DHT22;2225;53.568;13.266;2022-12-07T11:36:50;7.50;94.00
4425;DHT22;2225;53.568;13.266;2022-12-07T11:41:48;7.50;93.50
4425;DHT22;2225;53.568;13.266;2022-12-07T11:50:34;7.40;93.40
4425;DHT22;2225;53.568;13.266;2022-12-07T11:53:10;7.30;92.90
4425;DHT22;2225;53.568;13.266;2022-12-07T12:01:38;7.30;93.20
4425;DHT22;2225;53.568;13.266;2022-12-07T12:06:45;7.20;92.80
4425;DHT22;2225;53.568;13.266;2022-12-07T12:09:18;7.20;92.80
4425;DHT22;2225;53.568;13.266;2022-12-07T12:18:42;7.00;93.00
4425;DHT22;2225;53.568;13.266;2022-12-07T12:21:20;6.90;93.20
4425;DHT22;2225;53.568;13.266;2022-12-07T12:24:02;6.90;93.30
4425;DHT22;2225;53.568;13.266;2022-12-07T12:26:33;6.80;93.50
4425;DHT22;2225;53.568;13.266;2022-12-07T12:29:27;6.80;93.70
4425;DHT22;2225;53.568;13.266;2022-12-07T12:32:08;6.80;93.70
4425;DHT22;2225;53.568;13.266;2022-12-07T12:42:49;6.70;93.90
4425;DHT22;2225;53.568;13.266;2022-12-07T12:45:21;6.70;93.80
4425;DHT22;2225;53.568;13.266;2022-12-07T12:48:00;6.70;93.90
4425;DHT22;2225;53.568;13.266;2022-12-07T12:50:39;6.70;93.90
4425;DHT22;2225;53.568;13.266;2022-12-07T12:53:24;6.70;93.90
4425;DHT22;2225;53.568;13.266;2022-12-07T12:56:15;6.70;93.90
4425;DHT22;2225;53.568;13.266;2022-12-07T12:59:26;6.80;93.90
4425;DHT22;2225;53.568;13.266;2022-12-07T13:02:16;6.80;93.80
4425;DHT22;2225;53.568;13.266;2022-12-07T13:04:59;6.70;93.70
4425;DHT22;2225;53.568;13.266;2022-12-07T13:18:35;6.70;94.00
4425;DHT22;2225;53.568;13.266;2022-12-07T13:23:59;6.70;94.40
4425;DHT22;2225;53.568;13.266;2022-12-07T13:29:13;6.70;94.20
4425;DHT22;2225;53.568;13.266;2022-12-07T13:31:54;6.70;94.10
4425;DHT22;2225;53.568;13.266;2022-12-07T13:34:40;6.70;94.20
4425;DHT22;2225;53.568;13.266;2022-12-07T13:39:58;6.80;93.90
4425;DHT22;2225;53.568;13.266;2022-12-07T13:42:34;6.80;93.80
4425;DHT22;2225;53.568;13.266;2022-12-07T13:45:22;6.80;93.80
4425;DHT22;2225;53.568;13.266;2022-12-07T13:48:42;6.80;93.40
4425;DHT22;2225;53.568;13.266;2022-12-07T13:51:25;6.80;93.10
4425;DHT22;2225;53.568;13.266;2022-12-07T13:54:01;6.80;93.30
4425;DHT22;2225;53.568;13.266;2022-12-07T13:56:36;6.80;93.50
4425;DHT22;2225;53.568;13.266;2022-12-07T13:59:07;6.80;93.60
4425;DHT22;2225;53.568;13.266;2022-12-07T14:01:41;6.80;93.60
4425;DHT22;2225;53.568;13.266;2022-12-07T14:06:51;6.70;93.20
4425;DHT22;2225;53.568;13.266;2022-12-07T14:09:21;6.70;93.00
4425;DHT22;2225;53.568;13.266;2022-12-07T14:11:51;6.60;92.80
4425;DHT22;2225;53.568;13.266;2022-12-07T14:14:30;6.60;92.40
4425;DHT22;2225;53.568;13.266;2022-12-07T14:17:20;6.50;92.40
4425;DHT22;2225;53.568;13.266;2022-12-07T14:20:00;6.50;92.10
4425;DHT22;2225;53.568;13.266;2022-12-07T14:22:35;6.40;91.90
4425;DHT22;2225;53.568;13.266;2022-12-07T14:27:46;6.30;92.10
4425;DHT22;2225;53.568;13.266;2022-12-07T14:30:31;6.30;92.10
4425;DHT22;2225;53.568;13.266;2022-12-07T14:33:04;6.20;91.80
4425;DHT22;2225;53.568;13.266;2022-12-07T14:35:32;6.20;92.00
4425;DHT22;2225;53.568;13.266;2022-12-07T14:37:59;6.10;91.90
4425;DHT22;2225;53.568;13.266;2022-12-07T14:40:28;6.10;91.80
4425;DHT22;2225;53.568;13.266;2022-12-07T14:43:05;6.00;91.70
4425;DHT22;2225;53.568;13.266;2022-12-07T14:45:35;6.00;91.80
4425;DHT22;2225;53.568;13.266;2022-12-07T14:48:02;6.00;91.70
4425;DHT22;2225;53.568;13.266;2022-12-07T14:50:52;5.90;91.70
4425;DHT22;2225;53.568;13.266;2022-12-07T14:53:42;5.90;91.70
4425;DHT22;2225;53.568;13.266;2022-12-07T14:56:15;5.90;91.80
4425;DHT22;2225;53.568;13.266;2022-12-07T14:58:42;5.90;91.70
4425;DHT22;2225;53.568;13.266;2022-12-07T15:01:09;5.90;91.70
4425;DHT22;2225;53.568;13.266;2022-12-07T15:03:36;6.00;91.60
4425;DHT22;2225;53.568;13.266;2022-12-07T15:06:05;6.00;91.60
4425;DHT22;2225;53.568;13.266;2022-12-07T15:08:33;6.00;91.30
4425;DHT22;2225;53.568;13.266;2022-12-07T15:11:00;6.00;91.40
4425;DHT22;2225;53.568;13.266;2022-12-07T15:13:27;6.00;91.40
4425;DHT22;2225;53.568;13.266;2022-12-07T15:16:14;6.00;91.30
4425;DHT22;2225;53.568;13.266;2022-12-07T15:18:43;6.00;91.30
4425;DHT22;2225;53.568;13.266;2022-12-07T15:21:30;6.00;91.40
4425;DHT22;2225;53.568;13.266;2022-12-07T15:23:57;6.00;91.20
4425;DHT22;2225;53.568;13.266;2022-12-07T15:26:24;6.10;91.30
4425;DHT22;2225;53.568;13.266;2022-12-07T15:28:53;6.10;91.30
4425;DHT22;2225;53.568;13.266;2022-12-07T15:31:21;6.10;91.30
4425;DHT22;2225;53.568;13.266;2022-12-07T15:34:07;6.10;91.20
4425;DHT22;2225;53.568;13.266;2022-12-07T15:36:35;6.10;91.30
4425;DHT22;2225;53.568;13.266;2022-12-07T15:39:02;6.10;91.40
4425;DHT22;2225;53.568;13.266;2022-12-07T15:41:44;6.10;91.50
4425;DHT22;2225;53.568;13.266;2022-12-07T15:44:12;6.10;91.50
4425;DHT22;2225;53.568;13.266;2022-12-07T15:46:59;6.10;91.50
4425;DHT22;2225;53.568;13.266;2022-12-07T15:49:26;6.20;91.70
4425;DHT22;2225;53.568;13.266;2022-12-07T15:51:53;6.20;91.70
4425;DHT22;2225;53.568;13.266;2022-12-07T15:54:25;6.20;91.70
4425;DHT22;2225;53.568;13.266;2022-12-07T15:56:54;6.20;91.70
4425;DHT22;2225;53.568;13.266;2022-12-07T15:59:22;6.10;92.10
4425;DHT22;2225;53.568;13.266;2022-12-07T16:01:49;6.10;92.40
4425;DHT22;2225;53.568;13.266;2022-12-07T16:04:16;6.10;92.70
4425;DHT22;2225;53.568;13.266;2022-12-07T16:06:43;6.10;92.80
4425;DHT22;2225;53.568;13.266;2022-12-07T16:09:11;6.00;92.80
4425;DHT22;2225;53.568;13.266;2022-12-07T16:11:38;6.00;92.90
4425;DHT22;2225;53.568;13.266;2022-12-07T16:14:05;6.00;92.80
4425;DHT22;2225;53.568;13.266;2022-12-07T16:16:32;6.00;92.80
4425;DHT22;2225;53.568;13.266;2022-12-07T16:18:58;6.00;92.90
4425;DHT22;2225;53.568;13.266;2022-12-07T16:21:25;6.00;93.00
4425;DHT22;2225;53.568;13.266;2022-12-07T16:23:52;6.00;93.10
4425;DHT22;2225;53.568;13.266;2022-12-07T16:26:21;6.00;93.70
4425;DHT22;2225;53.568;13.266;2022-12-07T16:28:52;6.00;93.50
4425;DHT22;2225;53.568;13.266;2022-12-07T16:31:22;6.10;93.40
4425;DHT22;2225;53.568;13.266;2022-12-07T16:33:52;6.10;93.20
4425;DHT22;2225;53.568;13.266;2022-12-07T16:36:20;6.10;93.10
4425;DHT22;2225;53.568;13.266;2022-12-07T16:39:08;6.10;93.00
4425;DHT22;2225;53.568;13.266;2022-12-07T16:41:36;6.10;92.80
4425;DHT22;2225;53.568;13.266;2022-12-07T16:44:07;6.10;92.70
4425;DHT22;2225;53.568;13.266;2022-12-07T16:46:36;6.20;92.60
4425;DHT22;2225;53.568;13.266;2022-12-07T16:49:03;6.20;92.50
4425;DHT22;2225;53.568;13.266;2022-12-07T16:51:30;6.20;92.40
4425;DHT22;2225;53.568;13.266;2022-12-07T16:53:57;6.20;92.40
4425;DHT22;2225;53.568;13.266;2022-12-07T16:56:25;6.20;92.40
4425;DHT22;2225;53.568;13.266;2022-12-07T16:58:53;6.20;92.50
4425;DHT22;2225;53.568;13.266;2022-12-07T17:01:21;6.20;92.30
4425;DHT22;2225;53.568;13.266;2022-12-07T17:03:50;6.20;92.30
4425;DHT22;2225;53.568;13.266;2022-12-07T17:06:19;6.20;92.40
4425;DHT22;2225;53.568;13.266;2022-12-07T17:08:49;6.20;92.30
4425;DHT22;2225;53.568;13.266;2022-12-07T17:11:22;6.20;92.20
4425;DHT22;2225;53.568;13.266;2022-12-07T17:13:54;6.20;92.20
4425;DHT22;2225;53.568;13.266;2022-12-07T17:16:39;6.20;92.10
4425;DHT22;2225;53.568;13.266;2022-12-07T17:19:08;6.20;92.00
4425;DHT22;2225;53.568;13.266;2022-12-07T17:21:37;6.20;92.00
4425;DHT22;2225;53.568;13.266;2022-12-07T17:24:06;6.20;91.90
4425;DHT22;2225;53.568;13.266;2022-12-07T17:26:34;6.20;92.00
4425;DHT22;2225;53.568;13.266;2022-12-07T17:29:03;6.20;91.80
4425;DHT22;2225;53.568;13.266;2022-12-07T17:31:32;6.20;91.90
4425;DHT22;2225;53.568;13.266;2022-12-07T17:34:00;6.10;92.00
4425;DHT22;2225;53.568;13.266;2022-12-07T17:36:29;6.20;92.10
4425;DHT22;2225;53.568;13.266;2022-12-07T17:38:56;6.10;92.20
4425;DHT22;2225;53.568;13.266;2022-12-07T17:41:26;6.10;92.30
4425;DHT22;2225;53.568;13.266;2022-12-07T17:44:14;6.10;92.10
4425;DHT22;2225;53.568;13.266;2022-12-07T17:46:43;6.10;92.00
4425;DHT22;2225;53.568;13.266;2022-12-07T17:49:11;6.00;92.20
4425;DHT22;2225;53.568;13.266;2022-12-07T17:51:38;6.00;92.40
4425;DHT22;2225;53.568;13.266;2022-12-07T17:54:23;6.00;92.40
4425;DHT22;2225;53.568;13.266;2022-12-07T17:56:51;6.00;92.60
4425;DHT22;2225;53.568;13.266;2022-12-07T17:59:17;5.90;92.70
4425;DHT22;2225;53.568;13.266;2022-12-07T18:01:44;5.90;92.80
4425;DHT22;2225;53.568;13.266;2022-12-07T18:04:12;5.80;92.90
4425;DHT22;2225;53.568;13.266;2022-12-07T18:06:39;5.80;93.00
4425;DHT22;2225;53.568;13.266;2022-12-07T18:09:07;5.80;93.00
4425;DHT22;2225;53.568;13.266;2022-12-07T18:11:34;5.70;93.20
4425;DHT22;2225;53.568;13.266;2022-12-07T18:14:01;5.70;93.20
4425;DHT22;2225;53.568;13.266;2022-12-07T18:16:30;5.60;93.40